CFB Trenton
CYTR : now visible

Airfield :











YOU CAN JOIN US ON...

 
LOGIN :

Register | Disclaimer

   EN    FR    IT 

 









Legend :    VFR   Marginal VFR   IFR   Intensive IFR   Very Intensive IFR
Visi :
Ceiling :
>= 8 km
>= 3000ft
5 to 8 km
1000 to 3000 ft
1500m to 5 km
500 to 1000 ft
800 to 1500m
200 to 500 ft
< 800m
< 200 ft
Symbols :   Thunderstorms  Fog  Heavy snow  Heavy precipitations  Wind > 20 kt






- Airport Elevation : 283 ft
- IATA code : YTR


CYTR - CFB Trenton

CURRENT METAR :
  • 081800Z 21006KT 15SM BKN020 OVC090 08/05 A2964 RMK SC6AC2 SLP041

EXPIRED METARs :
  • 081700Z 22008KT 15SM BKN022 OVC089 08/04 A2964 RMK SC6AC2 SLP041
  • 081600Z 20004KT 15SM BKN027 OVC089 09/03 A2964 RMK SC6AC2 SLP038

TAF TAF CYTR
Valid from the 08 at 18:00 until the 09 at 18:00 UTC


081730Z 0818/0918 22008KT P6SM BKN025 OVC080
TEMPO 0818/0821 BKN020 OVC080
FM082100 21008KT P6SM FEW025 SCT040
BECMG 0823/0901 27005KT
FM090300 27005KT P6SM SCT140 OVC200
FM090600 VRB03KT P6SM BKN050 OVC080
TEMPO 0906/0908 P6SM -SHRA
FM090800 VRB03KT 3SM -SHRA BR BKN008 OVC020
PROB30 0908/0913 3/4SM -SHRA BR OVC005
FM091300 34008KT P6SM FEW008 SCT015 OVC060
BECMG 0913/0915 29015G25KT
FM091700 28018G28KT P6SM SCT040 BKN150 RMK NXT FCST BY 090000Z



MET'MAP, your aeronautical weather chart ! - Copyright ORBIFLY December 2007 - Disclaimer

ORBIFLY MET'MAP TEAM :

Programming & Development : Alexandra Zaïnal
Concept & original design : Baudouin d'Aumeries
Assistance for programming : Marc-Olivier Méhu
Technical & hardware support : Manuel Goepfert

Contact : metmap@orbifly.com




SOURCES & CREDITS :

   NOAA       Earth
Advisory